createdAt,value
2024-01-28T00:02:31.691Z,20.60
2024-01-28T00:05:35.315Z,20.30
2024-01-28T00:08:38.301Z,15.70
2024-01-28T00:11:41.255Z,15.30
2024-01-28T00:14:44.359Z,14.20
2024-01-28T00:17:47.255Z,13.70
2024-01-28T00:20:50.246Z,19.50
2024-01-28T00:23:53.648Z,18.70
2024-01-28T00:26:56.571Z,18.00
2024-01-28T00:29:59.541Z,16.60
2024-01-28T00:33:02.708Z,17.00
2024-01-28T00:36:06.290Z,13.60
2024-01-28T00:39:09.189Z,14.30
2024-01-28T00:42:12.037Z,17.30
2024-01-28T00:45:15.047Z,22.70
2024-01-28T00:48:18.063Z,17.20
2024-01-28T00:51:21.061Z,20.10
2024-01-28T00:54:25.260Z,15.50
2024-01-28T00:57:28.292Z,16.20
2024-01-28T01:00:32.471Z,16.40
2024-01-28T01:03:35.632Z,14.70
2024-01-28T01:06:41.011Z,14.90
2024-01-28T01:09:44.118Z,11.90
2024-01-28T01:12:47.171Z,13.60
2024-01-28T01:15:50.055Z,16.10
2024-01-28T01:18:53.158Z,13.70
2024-01-28T01:21:58.225Z,12.00
2024-01-28T01:25:01.496Z,11.60
2024-01-28T01:28:04.933Z,13.80
2024-01-28T01:31:07.889Z,16.30
2024-01-28T01:34:10.995Z,14.70
2024-01-28T01:37:13.969Z,10.00
2024-01-28T01:40:17.080Z,10.00
2024-01-28T01:43:21.220Z,9.70
2024-01-28T01:46:24.028Z,10.10
2024-01-28T01:49:28.462Z,11.10
2024-01-28T01:52:31.923Z,14.00
2024-01-28T01:55:36.299Z,11.60
2024-01-28T01:58:39.617Z,9.90
2024-01-28T02:01:43.779Z,6.80
2024-01-28T02:04:46.709Z,7.20
2024-01-28T02:07:49.661Z,7.70
2024-01-28T02:10:52.526Z,13.40
2024-01-28T02:13:55.384Z,12.70
2024-01-28T02:17:02.588Z,13.60
2024-01-28T02:23:09.160Z,7.00
2024-01-28T02:26:12.570Z,7.30
2024-01-28T02:29:15.529Z,6.40
2024-01-28T02:32:19.730Z,8.70
2024-01-28T02:35:22.615Z,12.00
2024-01-28T02:38:25.481Z,13.40
2024-01-28T02:41:28.332Z,11.20
2024-01-28T02:44:31.369Z,13.30
2024-01-28T02:47:34.195Z,8.90
2024-01-28T02:50:37.023Z,8.30
2024-01-28T02:53:39.961Z,14.20
2024-01-28T02:56:43.544Z,22.30
2024-01-28T02:59:46.395Z,11.70
2024-01-28T03:02:49.894Z,17.30
2024-01-28T03:05:53.179Z,17.80
2024-01-28T03:08:55.955Z,13.40
2024-01-28T03:11:59.120Z,12.30
2024-01-28T03:15:02.203Z,12.00
2024-01-28T03:18:05.346Z,15.70
2024-01-28T03:21:08.567Z,14.70
2024-01-28T03:24:11.534Z,25.30
2024-01-28T03:27:14.655Z,14.20
2024-01-28T03:30:18.681Z,12.10
2024-01-28T03:33:21.926Z,12.90
2024-01-28T03:36:25.691Z,17.10
2024-01-28T03:39:28.675Z,15.80
2024-01-28T03:42:32.109Z,23.30
2024-01-28T03:45:35.122Z,14.10
2024-01-28T03:48:38.110Z,11.50
2024-01-28T03:51:41.038Z,10.40
2024-01-28T03:54:44.047Z,11.40
2024-01-28T03:57:47.532Z,11.80
2024-01-28T04:00:50.627Z,12.70
2024-01-28T04:03:58.683Z,13.70
2024-01-28T04:07:02.816Z,18.20
2024-01-28T04:10:06.776Z,16.80
2024-01-28T04:13:09.614Z,16.50
2024-01-28T04:16:12.457Z,11.60
2024-01-28T04:19:15.360Z,10.60
2024-01-28T04:22:18.776Z,15.30
2024-01-28T04:25:21.703Z,22.50
2024-01-28T04:28:26.562Z,21.50
2024-01-28T04:31:30.820Z,24.20
2024-01-28T04:34:35.201Z,17.10
2024-01-28T04:37:38.201Z,13.40
2024-01-28T04:40:41.558Z,11.80
2024-01-28T04:43:44.515Z,10.20
2024-01-28T04:46:47.702Z,21.20
2024-01-28T04:49:50.784Z,20.70
2024-01-28T04:52:53.880Z,18.70
2024-01-28T04:55:56.678Z,11.30
2024-01-28T04:58:59.787Z,10.70
2024-01-28T05:02:03.296Z,8.50
2024-01-28T05:05:06.538Z,7.80
2024-01-28T05:08:10.341Z,9.60
2024-01-28T05:11:13.219Z,10.20
2024-01-28T05:14:16.050Z,12.00
2024-01-28T05:17:19.124Z,15.20
2024-01-28T05:20:23.013Z,9.70
2024-01-28T05:23:25.952Z,9.10
2024-01-28T05:26:28.753Z,8.00
2024-01-28T05:29:31.585Z,7.00
2024-01-28T05:32:34.552Z,10.00
2024-01-28T05:35:38.205Z,12.90
2024-01-28T05:38:41.651Z,16.80
2024-01-28T05:41:46.704Z,16.00
2024-01-28T05:44:51.043Z,14.00
2024-01-28T05:47:54.121Z,8.50
2024-01-28T05:50:57.230Z,19.10
2024-01-28T05:54:00.096Z,13.30
2024-01-28T05:57:03.065Z,13.30
2024-01-28T06:00:07.475Z,22.70
2024-01-28T06:03:11.967Z,31.20
2024-01-28T06:06:15.220Z,13.30
2024-01-28T06:09:19.533Z,12.50
2024-01-28T06:12:22.529Z,18.70
2024-01-28T06:15:25.640Z,17.20
2024-01-28T06:18:28.693Z,16.80
2024-01-28T06:21:31.625Z,14.70
2024-01-28T06:24:36.707Z,11.80
2024-01-28T06:27:39.689Z,19.90
2024-01-28T06:30:42.738Z,18.90
2024-01-28T06:33:45.746Z,17.80
2024-01-28T06:36:49.195Z,17.00
2024-01-28T06:39:53.367Z,13.30
2024-01-28T06:42:56.327Z,11.00
2024-01-28T06:46:00.878Z,10.90
2024-01-28T06:49:05.175Z,16.80
2024-01-28T06:52:08.121Z,26.20
2024-01-28T06:55:11.548Z,15.40
2024-01-28T06:58:14.451Z,17.10
2024-01-28T07:01:18.137Z,33.90
2024-01-28T07:04:21.264Z,54.10
2024-01-28T07:07:24.399Z,78.20
2024-01-28T07:10:29.226Z,133.70
2024-01-28T07:13:32.353Z,65.40
2024-01-28T07:16:36.617Z,37.40
2024-01-28T07:19:42.007Z,67.10
2024-01-28T07:22:45.277Z,92.00
2024-01-28T07:25:49.738Z,62.90
2024-01-28T07:28:52.752Z,53.00
2024-01-28T07:31:55.804Z,23.90
2024-01-28T07:34:58.875Z,42.40
2024-01-28T07:38:01.779Z,100.70
2024-01-28T07:41:05.090Z,108.00
2024-01-28T07:44:08.269Z,35.00
2024-01-28T07:47:11.150Z,38.90
2024-01-28T07:50:14.286Z,24.30
2024-01-28T07:53:17.312Z,27.90
2024-01-28T07:56:20.136Z,29.90
2024-01-28T07:59:23.480Z,28.20
2024-01-28T08:02:26.334Z,30.90
2024-01-28T08:05:29.162Z,22.10
2024-01-28T08:08:34.132Z,24.20
2024-01-28T08:11:38.039Z,18.20
2024-01-28T08:14:40.941Z,21.80
2024-01-28T08:17:45.582Z,17.10
2024-01-28T08:20:48.612Z,15.80
2024-01-28T08:23:51.499Z,13.40
2024-01-28T08:26:54.617Z,15.40
2024-01-28T08:29:58.148Z,16.90
2024-01-28T08:33:01.079Z,17.70
2024-01-28T08:36:04.204Z,14.70
2024-01-28T08:39:07.160Z,12.40
2024-01-28T08:42:10.252Z,18.30
2024-01-28T08:45:13.304Z,22.10
2024-01-28T08:48:16.420Z,16.60
2024-01-28T08:51:19.493Z,15.30
2024-01-28T08:54:22.408Z,12.90
2024-01-28T08:57:25.688Z,13.40
2024-01-28T09:00:28.843Z,11.40
2024-01-28T09:03:32.744Z,14.20
2024-01-28T09:06:37.217Z,13.60
2024-01-28T09:09:40.680Z,17.00
2024-01-28T09:12:43.665Z,19.90
2024-01-28T09:15:46.584Z,13.40
2024-01-28T09:18:49.445Z,11.90
2024-01-28T09:21:52.792Z,10.90
2024-01-28T09:24:55.869Z,10.40
2024-01-28T09:27:58.750Z,20.60
2024-01-28T09:31:01.721Z,12.10
2024-01-28T09:34:05.633Z,10.70
2024-01-28T09:37:09.223Z,9.30
2024-01-28T09:40:13.205Z,7.90
2024-01-28T09:43:31.436Z,7.50
2024-01-28T09:46:36.929Z,8.10
2024-01-28T09:49:41.345Z,13.00
2024-01-28T09:52:44.385Z,11.00
2024-01-28T09:55:47.344Z,8.80
2024-01-28T09:58:50.805Z,11.70
2024-01-28T10:01:54.374Z,9.10
2024-01-28T10:04:57.826Z,11.90
2024-01-28T10:08:03.477Z,16.60
2024-01-28T10:11:06.510Z,7.70
2024-01-28T10:14:11.621Z,7.40
2024-01-28T10:17:14.845Z,5.90
2024-01-28T10:20:19.603Z,5.80
2024-01-28T10:23:22.562Z,5.70
2024-01-28T10:26:25.395Z,4.70
2024-01-28T10:29:29.330Z,5.70
2024-01-28T10:32:32.254Z,6.90
2024-01-28T10:35:35.171Z,4.30
2024-01-28T10:38:44.103Z,5.40
2024-01-28T10:41:55.502Z,4.90
2024-01-28T10:45:00.897Z,5.60
2024-01-28T10:48:08.822Z,13.40
2024-01-28T10:51:15.134Z,10.40
2024-01-28T10:54:18.311Z,9.90
2024-01-28T10:57:22.524Z,7.80
2024-01-28T11:00:27.709Z,10.20
2024-01-28T11:03:31.096Z,6.90
2024-01-28T11:06:34.490Z,13.90
2024-01-28T11:09:38.549Z,8.80
2024-01-28T11:12:41.947Z,9.20
2024-01-28T11:15:46.732Z,8.30
2024-01-28T11:19:05.496Z,8.80
2024-01-28T11:22:15.502Z,8.10
2024-01-28T11:25:26.516Z,8.10
2024-01-28T11:28:30.689Z,7.90
2024-01-28T11:31:35.581Z,8.20
2024-01-28T11:34:38.665Z,9.60
2024-01-28T11:37:59.587Z,15.80
2024-01-28T11:41:03.531Z,10.40
2024-01-28T11:44:08.922Z,10.50
2024-01-28T11:47:14.404Z,8.00
2024-01-28T11:50:17.832Z,25.40
2024-01-28T11:53:20.744Z,10.80
2024-01-28T11:56:23.729Z,7.30
2024-01-28T11:59:26.567Z,7.50
2024-01-28T12:02:29.453Z,6.30
2024-01-28T12:05:32.402Z,6.00
2024-01-28T12:08:40.541Z,5.90
2024-01-28T12:11:43.957Z,5.40
2024-01-28T12:14:46.896Z,7.30
2024-01-28T12:17:52.471Z,7.20
2024-01-28T12:20:55.411Z,6.10
2024-01-28T12:24:05.181Z,8.70
2024-01-28T12:27:08.314Z,6.00
2024-01-28T12:30:11.707Z,5.80
2024-01-28T12:33:14.779Z,7.60
2024-01-28T12:36:18.453Z,8.20
2024-01-28T12:39:21.588Z,8.60
2024-01-28T12:42:24.545Z,7.10
2024-01-28T12:45:27.707Z,7.20
2024-01-28T12:48:30.907Z,8.80
2024-01-28T12:51:33.995Z,7.20
2024-01-28T12:54:37.018Z,6.90
2024-01-28T12:57:40.611Z,5.50
2024-01-28T13:00:44.311Z,6.10
2024-01-28T13:03:47.765Z,5.40
2024-01-28T13:06:50.771Z,5.20
2024-01-28T13:09:53.837Z,7.00
2024-01-28T13:12:57.223Z,8.70
2024-01-28T13:16:01.351Z,5.10
2024-01-28T13:19:04.506Z,5.00
2024-01-28T13:22:07.502Z,5.60
2024-01-28T13:25:11.571Z,5.60
2024-01-28T13:28:14.562Z,5.20
2024-01-28T13:31:18.108Z,5.00
2024-01-28T13:34:21.321Z,5.00
2024-01-28T13:37:24.307Z,5.00
2024-01-28T13:40:27.146Z,4.70
2024-01-28T13:43:35.612Z,4.70
2024-01-28T13:46:38.700Z,5.10
2024-01-28T13:49:41.674Z,13.60
2024-01-28T13:52:44.569Z,27.10
2024-01-28T13:55:47.645Z,26.80
2024-01-28T13:58:50.622Z,12.70
2024-01-28T14:01:53.433Z,5.30
2024-01-28T14:04:56.315Z,5.50
2024-01-28T14:07:59.295Z,9.50
2024-01-28T14:11:02.300Z,7.60
2024-01-28T14:14:05.098Z,5.80
2024-01-28T14:17:10.246Z,5.20
2024-01-28T14:20:13.233Z,6.40
2024-01-28T14:23:16.129Z,9.10
2024-01-28T14:26:19.229Z,4.80
2024-01-28T14:29:23.295Z,4.60
2024-01-28T14:32:27.650Z,4.80
2024-01-28T14:35:30.499Z,9.40
2024-01-28T14:38:34.430Z,19.60
2024-01-28T14:41:37.265Z,100.80
2024-01-28T14:44:40.054Z,51.90
2024-01-28T14:47:43.977Z,52.00
2024-01-28T14:50:46.850Z,47.60
2024-01-28T14:53:49.732Z,38.30
2024-01-28T14:56:52.612Z,33.00
2024-01-28T14:59:56.374Z,22.00
2024-01-28T15:03:00.123Z,30.40
2024-01-28T15:06:03.305Z,29.00
2024-01-28T15:09:07.663Z,83.20
2024-01-28T15:12:10.472Z,102.40
2024-01-28T15:15:15.656Z,137.70
2024-01-28T15:18:18.984Z,50.70
2024-01-28T15:21:25.699Z,34.20
2024-01-28T15:24:28.610Z,40.90
2024-01-28T15:27:31.459Z,73.50
2024-01-28T15:30:34.520Z,64.30
2024-01-28T15:33:37.583Z,73.20
2024-01-28T15:36:40.992Z,57.00
2024-01-28T15:39:43.973Z,53.00
2024-01-28T15:42:48.371Z,52.00
2024-01-28T15:45:51.819Z,84.70
2024-01-28T15:48:56.417Z,53.40
2024-01-28T15:51:59.493Z,41.90
2024-01-28T15:55:02.436Z,44.20
2024-01-28T15:58:05.521Z,57.80
2024-01-28T16:01:09.157Z,82.40
2024-01-28T16:04:12.169Z,61.90
2024-01-28T16:07:15.329Z,68.80
2024-01-28T16:10:18.383Z,205.40
2024-01-28T16:13:21.296Z,180.20
2024-01-28T16:16:24.399Z,84.90
2024-01-28T16:19:28.375Z,39.20
2024-01-28T16:22:31.358Z,23.00
2024-01-28T16:25:34.638Z,23.50
2024-01-28T16:28:37.615Z,23.90
2024-01-28T16:31:40.673Z,32.30
2024-01-28T16:34:43.723Z,33.30
2024-01-28T16:37:51.362Z,28.00
2024-01-28T16:40:54.245Z,25.00
2024-01-28T16:43:57.192Z,35.70
2024-01-28T16:47:00.372Z,38.60
2024-01-28T16:50:05.199Z,37.00
2024-01-28T16:53:08.161Z,28.60
2024-01-28T16:56:11.805Z,27.80
2024-01-28T16:59:15.044Z,55.40
2024-01-28T17:02:18.056Z,54.10
2024-01-28T17:05:21.043Z,56.20
2024-01-28T17:08:25.180Z,50.30
2024-01-28T17:11:27.988Z,42.10
2024-01-28T17:14:31.047Z,26.30
2024-01-28T17:17:34.085Z,27.00
2024-01-28T17:20:37.353Z,26.60
2024-01-28T17:23:40.936Z,43.60
2024-01-28T17:26:45.790Z,85.20
2024-01-28T17:29:49.326Z,174.10
2024-01-28T17:32:52.262Z,176.40
2024-01-28T17:35:55.360Z,96.10
2024-01-28T17:38:58.265Z,45.80
2024-01-28T17:42:01.217Z,32.40
2024-01-28T17:45:05.734Z,61.30
2024-01-28T17:48:08.703Z,79.20
2024-01-28T17:51:11.681Z,50.50
2024-01-28T17:54:15.948Z,55.40
2024-01-28T17:57:19.943Z,54.30
2024-01-28T18:00:22.954Z,51.50
2024-01-28T18:03:26.003Z,39.00
2024-01-28T18:06:29.028Z,44.00
2024-01-28T18:09:32.111Z,46.70
2024-01-28T18:12:35.182Z,36.10
2024-01-28T18:15:38.446Z,29.50
2024-01-28T18:18:42.449Z,31.90
2024-01-28T18:21:45.570Z,36.20
2024-01-28T18:24:49.929Z,34.00
2024-01-28T18:27:54.348Z,32.10
2024-01-28T18:30:57.272Z,32.20
2024-01-28T18:34:02.213Z,33.90
2024-01-28T18:37:05.418Z,38.90
2024-01-28T18:40:11.084Z,39.80
2024-01-28T18:43:14.019Z,41.70
2024-01-28T18:46:17.987Z,47.20
2024-01-28T18:49:22.774Z,49.90
2024-01-28T18:52:25.789Z,48.20
2024-01-28T18:55:28.931Z,59.60
2024-01-28T18:58:31.816Z,58.60
2024-01-28T19:01:34.843Z,57.50
2024-01-28T19:04:37.953Z,70.30
2024-01-28T19:07:41.026Z,66.70
2024-01-28T19:10:45.169Z,53.10
2024-01-28T19:13:49.311Z,48.10
2024-01-28T19:16:52.170Z,48.90
2024-01-28T19:19:55.133Z,60.40
2024-01-28T19:22:57.967Z,76.70
2024-01-28T19:26:00.933Z,84.80
2024-01-28T19:29:04.241Z,89.70
2024-01-28T19:32:07.615Z,86.30
2024-01-28T19:35:10.637Z,64.90
2024-01-28T19:38:13.512Z,66.70
2024-01-28T19:41:16.437Z,67.00
2024-01-28T19:44:19.774Z,59.60
2024-01-28T19:47:22.757Z,70.70
2024-01-28T19:50:25.570Z,68.50
2024-01-28T19:53:28.718Z,87.40
2024-01-28T19:56:31.542Z,75.40
2024-01-28T19:59:34.562Z,62.00
2024-01-28T20:02:37.772Z,48.00
2024-01-28T20:05:42.105Z,47.00
2024-01-28T20:08:46.207Z,42.40
2024-01-28T20:11:49.187Z,41.20
2024-01-28T20:14:52.444Z,52.70
2024-01-28T20:17:55.356Z,41.60
2024-01-28T20:20:59.348Z,63.50
2024-01-28T20:24:02.249Z,73.60
2024-01-28T20:27:05.422Z,101.50
2024-01-28T20:30:09.381Z,84.20
2024-01-28T20:33:12.407Z,82.40
2024-01-28T20:36:15.511Z,70.10
2024-01-28T20:39:18.418Z,50.70
2024-01-28T20:42:21.334Z,51.60
2024-01-28T20:45:24.376Z,59.00
2024-01-28T20:48:27.382Z,72.60
2024-01-28T20:51:30.444Z,73.90
2024-01-28T20:54:33.756Z,84.60
2024-01-28T20:57:37.057Z,75.50
2024-01-28T21:00:40.500Z,74.80
2024-01-28T21:03:43.358Z,64.80
2024-01-28T21:06:46.487Z,48.40
2024-01-28T21:09:50.039Z,46.10
2024-01-28T21:12:53.162Z,50.40
2024-01-28T21:15:56.110Z,64.80
2024-01-28T21:18:59.067Z,112.60
2024-01-28T21:22:02.128Z,78.60
2024-01-28T21:25:05.689Z,60.00
2024-01-28T21:28:08.703Z,76.50
2024-01-28T21:31:11.664Z,77.40
2024-01-28T21:34:14.954Z,69.20
2024-01-28T21:37:17.981Z,80.50
2024-01-28T21:40:20.795Z,97.50
2024-01-28T21:43:23.691Z,89.00
2024-01-28T21:46:26.574Z,84.40
2024-01-28T21:49:29.521Z,68.00
2024-01-28T21:52:32.357Z,65.90
2024-01-28T21:55:38.267Z,64.00
2024-01-28T21:58:41.553Z,67.30
2024-01-28T22:01:44.881Z,54.40
2024-01-28T22:04:47.837Z,56.50
2024-01-28T22:07:50.870Z,55.70
2024-01-28T22:10:53.881Z,57.00
2024-01-28T22:13:56.735Z,59.40
2024-01-28T22:16:59.598Z,69.30
2024-01-28T22:20:04.086Z,66.70
2024-01-28T22:23:07.070Z,129.80
2024-01-28T22:26:10.044Z,77.60
2024-01-28T22:29:13.550Z,68.20
2024-01-28T22:32:16.793Z,154.00
2024-01-28T22:35:19.971Z,80.60
2024-01-28T22:38:22.931Z,68.20
2024-01-28T22:41:25.832Z,57.50
2024-01-28T22:44:28.661Z,65.40
2024-01-28T22:47:31.640Z,57.60
2024-01-28T22:50:41.417Z,73.10
2024-01-28T22:53:44.714Z,95.30
2024-01-28T22:56:47.599Z,87.70
2024-01-28T22:59:50.456Z,69.20
2024-01-28T23:02:54.289Z,57.50
2024-01-28T23:05:58.849Z,59.40
2024-01-28T23:09:02.287Z,75.80
2024-01-28T23:12:06.412Z,88.00
2024-01-28T23:15:15.268Z,99.20
2024-01-28T23:18:24.745Z,95.10
2024-01-28T23:21:27.740Z,90.20
2024-01-28T23:24:30.764Z,90.40
2024-01-28T23:27:33.699Z,89.50
2024-01-28T23:30:38.184Z,82.30
2024-01-28T23:33:41.234Z,75.70
2024-01-28T23:36:44.537Z,77.80
2024-01-28T23:39:47.470Z,78.20
2024-01-28T23:42:50.931Z,88.00
2024-01-28T23:45:53.921Z,91.40
2024-01-28T23:48:56.928Z,83.20
2024-01-28T23:52:00.675Z,79.10
2024-01-28T23:55:04.682Z,78.90
2024-01-28T23:58:07.746Z,75.60
